• Join FlightAware (Why Join?)
  • Login
  • US Flag 
11:10PM EDT


 

Airport Tracker/Info


-or-


 

Live Flight TrackerFlight Track Log ✈ SWA34 ✈ 28-Apr-2013 ✈ KHOU - KDAL

Flight Track Log - Related Links

Times and Time Zones

All times are in EDT time to prevent confusion due to time zone crossing. See the SWA34 flight status page for this flight to view local times or setup timezone preferences in your user account.

Time Position Orientation Groundspeed Altitude Reporting Facility
EDT Latitude Longitude Course Direction KTS MPH feet Rate Location/Type
03:37PM 29.6361 -95.2289 102° East 206 237 2,400  Level Houston Center
03:38PM 29.6842 -95.2350 354° North 250 288 4,200 2,880 Climbing Houston Center
03:39PM 29.7581 -95.2553 347° North 268 308 7,800 3,000 Climbing Houston Center
03:40PM 29.8319 -95.2756 347° North 270 311 10,500 2,340 Climbing Houston Center
03:41PM 29.9222 -95.3003 347° North 323 372 12,700 2,340 Climbing Houston Center
03:42PM 30.0372 -95.3319 347° North 347 399 15,400 2,820 Climbing Houston Center
03:43PM 30.1381 -95.3603 346° North 366 421 18,600 2,580 Climbing Houston Center
03:44PM 30.2336 -95.3867 347° North 359 413 20,800 1,920 Climbing Houston Center
03:45PM 30.3339 -95.4150 346° North 364 419 22,700 1,680 Climbing Houston Center
03:46PM 30.4378 -95.4439 347° North 376 433 24,400 1,560 Climbing Houston Center
03:47PM 30.5458 -95.4731 347° North 392 451 26,000 1,500 Climbing Houston Center
03:48PM 30.6769 -95.5083 347° North 402 463 27,600 1,200 Climbing Houston Center
03:49PM 30.7986 -95.5356 349° North 428 493 28,600 1,200 Climbing Houston Center
03:50PM 30.9214 -95.5622 349° North 443 510 30,200 1,500 Climbing Houston Center
03:51PM 31.0392 -95.5894 349° North 431 496 31,800 840 Climbing Houston Center
03:52PM 31.1597 -95.6167 349° North 437 503 32,000 60 Climbing Houston Center
03:53PM 31.2489 -95.6369 349° North 437 503 32,000 -840 Level Fort Worth Center
03:54PM 31.3661 -95.6714 346° North 435 501 30,600 -1,500 Descending Fort Worth Center
03:55PM 31.4778 -95.7422 332° Northwest 421 484 29,100 -1,440 Descending Fort Worth Center
03:56PM 31.5811 -95.8111 330° Northwest 413 475 27,800 -1,500 Descending Fort Worth Center
03:57PM 31.6717 -95.8731 330° Northwest 398 458 26,100 -1,980 Descending Fort Worth Center
03:58PM 31.7622 -95.9350 330° Northwest 388 447 23,900 -2,160 Descending Fort Worth Center
03:59PM 31.8547 -95.9947 331° Northwest 383 441 21,800 -2,160 Descending Fort Worth Center
04:00PM 31.9472 -96.0569 330° Northwest 374 430 19,600 -2,100 Descending Fort Worth Center
04:01PM 32.0186 -96.1075 329° Northwest 362 417 17,700 -1,980 Descending Fort Worth Center
04:02PM 32.1047 -96.1600 333° Northwest 348 400 15,700 -1,980 Descending Fort Worth Center
04:03PM 32.1828 -96.2181 328° Northwest 335 386 13,800 -1,980 Descending Fort Worth Center
04:04PM 32.2708 -96.2683 334° Northwest 330 380 11,800 -1,740 Descending Fort Worth Center
04:05PM 32.3381 -96.3119 331° Northwest 312 359 10,400 -1,200 Descending Fort Worth Center
04:06PM 32.4136 -96.3578 333° Northwest 290 334 9,500 -720 Descending Fort Worth Center
04:07PM 32.4744 -96.3939 333° Northwest 276 318 9,000 -720 Descending Fort Worth Center
04:08PM 32.5500 -96.4400 333° Northwest 276 318 8,100 -1,200 Descending Fort Worth Center
04:09PM 32.6108 -96.4761 333° Northwest 276 318 6,700 -1,620 Descending Fort Worth Center
04:10PM 32.6861 -96.5247 331° Northwest 269 310 4,900 -1,320 Descending Fort Worth Center
04:11PM 32.7408 -96.5761 322° Northwest 282 325 4,100 -480 Descending Fort Worth Center
04:12PM 32.7997 -96.6422 317° Northwest 271 312 4,000 -240 Descending Fort Worth Center
04:13PM 32.8419 -96.7014 310° West 265 305 3,700 -600 Descending Fort Worth Center
04:14PM 32.8833 -96.7500 315° West 236 272 3,000 -420 Descending Dallas / Fort Worth TRACON
04:15PM 32.9167 -96.8167 301° West 216 249 3,000 -300 Level Dallas / Fort Worth TRACON
04:16PM 32.9167 -96.8667 270° West 184 212 2,500 -720 Descending Dallas / Fort Worth TRACON
04:17PM 32.8833 -96.9000 220° Southwest 143 165 1,600 -900 Descending Dallas / Fort Worth TRACON
04:18PM 32.8667 -96.8667 121° Southeast 144 166 800 -840 Descending Dallas / Fort Worth TRACON
04:20PM 32.8471 -96.8518 157° South  Level Estimated